createdAt,value
2022-11-27T00:04:40.100Z,13.52
2022-11-27T00:09:38.468Z,10.52
2022-11-27T00:14:35.717Z,11.77
2022-11-27T00:19:33.434Z,11.68
2022-11-27T00:24:30.361Z,12.68
2022-11-27T00:29:28.698Z,12.55
2022-11-27T00:34:25.974Z,12.80
2022-11-27T00:39:22.940Z,14.48
2022-11-27T00:44:19.881Z,11.68
2022-11-27T00:49:17.855Z,15.35
2022-11-27T00:54:14.763Z,12.43
2022-11-27T00:59:12.039Z,13.57
2022-11-27T01:04:12.260Z,11.75
2022-11-27T01:09:12.654Z,13.20
2022-11-27T01:14:14.328Z,13.45
2022-11-27T01:19:13.472Z,12.57
2022-11-27T01:24:13.405Z,15.00
2022-11-27T01:29:11.290Z,12.90
2022-11-27T01:34:12.962Z,14.18
2022-11-27T01:39:15.501Z,11.95
2022-11-27T01:44:48.761Z,12.57
2022-11-27T01:49:51.942Z,14.82
2022-11-27T01:54:54.079Z,16.15
2022-11-27T01:59:54.495Z,17.40
2022-11-27T02:04:52.353Z,17.45
2022-11-27T02:09:50.489Z,18.77
2022-11-27T02:14:55.587Z,19.25
2022-11-27T02:20:07.964Z,22.20
2022-11-27T02:25:13.733Z,18.13
2022-11-27T02:30:12.708Z,19.92
2022-11-27T02:35:18.292Z,15.07
2022-11-27T02:40:20.272Z,15.65
2022-11-27T02:45:23.799Z,17.77
2022-11-27T02:50:24.746Z,16.20
2022-11-27T02:55:26.452Z,16.50
2022-11-27T03:00:24.767Z,15.90
2022-11-27T03:05:23.944Z,15.55
2022-11-27T03:10:26.914Z,15.15
2022-11-27T03:15:28.988Z,18.77
2022-11-27T03:20:27.902Z,13.00
2022-11-27T03:25:25.933Z,16.40
2022-11-27T03:30:22.811Z,13.55
2022-11-27T03:35:25.712Z,16.48
2022-11-27T03:40:30.495Z,14.25
2022-11-27T03:45:35.593Z,15.00
2022-11-27T03:50:43.218Z,14.10
2022-11-27T03:55:55.642Z,14.40
2022-11-27T04:00:56.139Z,18.77
2022-11-27T04:05:54.043Z,17.40
2022-11-27T04:10:51.004Z,17.67
2022-11-27T04:15:48.004Z,16.55
2022-11-27T04:20:47.993Z,16.25
2022-11-27T04:25:45.831Z,17.10
2022-11-27T04:30:43.022Z,17.40
2022-11-27T04:35:40.002Z,17.38
2022-11-27T04:40:36.957Z,14.75
2022-11-27T04:45:34.855Z,22.25
2022-11-27T04:50:31.915Z,13.38
2022-11-27T04:55:28.884Z,17.70
2022-11-27T05:00:25.971Z,18.00
2022-11-27T05:05:23.817Z,19.63
2022-11-27T05:10:20.780Z,21.33
2022-11-27T05:15:17.784Z,19.30
2022-11-27T05:20:14.770Z,21.38
2022-11-27T05:25:12.896Z,20.02
2022-11-27T05:30:10.510Z,19.80
2022-11-27T05:35:08.038Z,18.90
2022-11-27T05:40:06.848Z,20.48
2022-11-27T05:45:05.616Z,19.63
2022-11-27T05:50:03.019Z,17.60
2022-11-27T05:55:02.948Z,17.25
2022-11-27T05:59:59.994Z,18.63
2022-11-27T06:04:57.928Z,19.42
2022-11-27T06:09:56.275Z,18.63
2022-11-27T06:14:53.320Z,20.58
2022-11-27T06:19:51.095Z,20.98
2022-11-27T06:24:50.156Z,21.73
2022-11-27T06:29:50.119Z,21.50
2022-11-27T06:34:47.481Z,18.05
2022-11-27T06:39:48.384Z,27.15
2022-11-27T06:44:47.052Z,19.30
2022-11-27T06:56:30.392Z,17.27
2022-11-27T07:01:54.211Z,20.35
2022-11-27T07:06:54.948Z,24.85
2022-11-27T07:11:52.440Z,21.02
2022-11-27T07:16:49.660Z,18.85
2022-11-27T07:21:47.811Z,25.02
2022-11-27T07:26:44.997Z,23.35
2022-11-27T07:31:42.269Z,20.20
2022-11-27T07:36:46.717Z,22.27
2022-11-27T07:41:44.624Z,17.73
2022-11-27T07:46:44.971Z,16.70
2022-11-27T07:51:42.117Z,17.23
2022-11-27T07:56:39.407Z,18.08
2022-11-27T08:01:37.167Z,16.73
2022-11-27T08:06:34.403Z,18.70
2022-11-27T08:11:34.630Z,16.52
2022-11-27T08:16:35.638Z,16.90
2022-11-27T08:21:33.533Z,17.13
2022-11-27T08:26:32.526Z,18.83
2022-11-27T08:31:31.793Z,17.67
2022-11-27T08:36:29.028Z,19.77
2022-11-27T08:41:42.203Z,16.50
2022-11-27T08:46:46.935Z,17.52
2022-11-27T08:51:48.534Z,17.85
2022-11-27T08:56:46.488Z,18.00
2022-11-27T09:01:46.019Z,17.40
2022-11-27T09:06:43.879Z,19.63
2022-11-27T09:11:41.879Z,22.70
2022-11-27T09:16:39.937Z,24.08
2022-11-27T09:21:43.030Z,20.20
2022-11-27T09:26:42.677Z,21.33
2022-11-27T09:31:52.651Z,20.38
2022-11-27T09:36:54.715Z,27.73
2022-11-27T09:42:15.474Z,22.92
2022-11-27T09:47:31.128Z,24.65
2022-11-27T09:52:36.851Z,23.90
2022-11-27T10:02:35.601Z,23.40
2022-11-27T10:07:42.101Z,23.60
2022-11-27T10:12:51.891Z,24.70
2022-11-27T10:17:58.059Z,24.00
2022-11-27T10:23:00.313Z,24.17
2022-11-27T10:28:06.796Z,22.25
2022-11-27T10:33:18.282Z,23.20
2022-11-27T10:38:22.155Z,23.40
2022-11-27T10:43:21.230Z,28.85
2022-11-27T10:48:19.865Z,26.80
2022-11-27T10:53:25.702Z,27.20
2022-11-27T10:58:31.103Z,25.88
2022-11-27T11:03:28.701Z,26.08
2022-11-27T11:08:28.302Z,25.40
2022-11-27T11:13:27.423Z,26.67
2022-11-27T11:18:30.412Z,22.83
2022-11-27T11:23:31.634Z,21.50
2022-11-27T11:28:29.245Z,25.00
2022-11-27T11:33:28.082Z,22.30
2022-11-27T11:38:31.369Z,26.35
2022-11-27T11:43:29.614Z,26.83
2022-11-27T11:48:27.857Z,25.70
2022-11-27T11:53:39.448Z,27.80
2022-11-27T11:58:50.747Z,21.85
2022-11-27T12:04:07.528Z,21.63
2022-11-27T12:09:21.030Z,25.23
2022-11-27T12:14:27.683Z,36.33
2022-11-27T12:19:47.109Z,26.65
2022-11-27T12:24:54.812Z,26.48
2022-11-27T12:30:06.472Z,24.98
2022-11-27T12:35:33.970Z,21.90
2022-11-27T12:40:45.189Z,25.35
2022-11-27T12:45:53.135Z,24.48
2022-11-27T12:51:02.196Z,26.33
2022-11-27T12:56:09.549Z,22.45
2022-11-27T13:01:11.372Z,27.98
2022-11-27T13:06:12.046Z,27.33
2022-11-27T13:11:13.856Z,25.30
2022-11-27T13:16:18.796Z,27.50
2022-11-27T13:21:19.755Z,24.55
2022-11-27T13:26:26.127Z,34.65
2022-11-27T13:31:29.790Z,32.13
2022-11-27T13:36:34.698Z,32.47
2022-11-27T13:41:39.742Z,28.98
2022-11-27T13:46:47.925Z,24.13
2022-11-27T13:51:45.285Z,22.98
2022-11-27T13:56:43.102Z,22.58
2022-11-27T14:01:40.734Z,20.10
2022-11-27T14:06:42.560Z,23.92
2022-11-27T14:11:43.989Z,22.70
2022-11-27T14:16:42.185Z,29.30
2022-11-27T14:21:42.247Z,24.38
2022-11-27T14:26:41.637Z,25.05
2022-11-27T14:31:39.190Z,28.35
2022-11-27T14:36:36.985Z,34.10
2022-11-27T14:41:34.582Z,30.30
2022-11-27T14:46:34.330Z,30.27
2022-11-27T14:51:34.535Z,31.92
2022-11-27T14:56:34.509Z,27.52
2022-11-27T15:01:33.438Z,31.40
2022-11-27T15:06:36.779Z,31.05
2022-11-27T15:11:56.266Z,27.25
2022-11-27T15:16:57.361Z,28.65
2022-11-27T15:21:54.610Z,27.45
2022-11-27T15:26:55.094Z,32.03
2022-11-27T15:31:53.526Z,33.05
2022-11-27T15:36:58.427Z,33.42
2022-11-27T15:41:58.531Z,34.50
2022-11-27T15:47:01.461Z,34.05
2022-11-27T15:51:58.823Z,43.47
2022-11-27T15:56:57.147Z,42.95
2022-11-27T16:01:55.349Z,38.10
2022-11-27T16:06:52.465Z,38.63
2022-11-27T16:11:55.708Z,40.08
2022-11-27T16:17:00.838Z,42.05
2022-11-27T16:21:58.994Z,46.58
2022-11-27T16:26:56.588Z,41.78
2022-11-27T16:32:06.657Z,37.88
2022-11-27T16:37:07.566Z,36.53
2022-11-27T16:42:13.413Z,38.63
2022-11-27T16:47:12.106Z,41.35
2022-11-27T16:52:10.184Z,41.15
2022-11-27T16:57:07.560Z,36.40
2022-11-27T17:02:04.970Z,39.88
2022-11-27T17:07:03.070Z,42.45
2022-11-27T17:11:59.967Z,44.03
2022-11-27T17:16:57.693Z,45.35
2022-11-27T17:22:13.340Z,46.55
2022-11-27T17:27:21.260Z,44.58
2022-11-27T17:32:21.105Z,41.25
2022-11-27T17:37:34.359Z,44.72
2022-11-27T17:42:32.732Z,56.53
2022-11-27T17:47:34.780Z,47.97
2022-11-27T17:52:43.841Z,50.17
2022-11-27T17:58:37.392Z,53.13
2022-11-27T18:04:13.710Z,55.35
2022-11-27T18:09:12.686Z,64.50
2022-11-27T18:15:07.444Z,48.25
2022-11-27T18:20:08.794Z,57.45
2022-11-27T18:25:07.305Z,53.92
2022-11-27T18:30:05.761Z,65.35
2022-11-27T18:40:23.450Z,65.95
2022-11-27T18:45:32.781Z,61.53
2022-11-27T18:50:43.169Z,64.95
2022-11-27T18:55:48.862Z,67.82
2022-11-27T19:01:19.137Z,61.85
2022-11-27T19:06:28.080Z,64.93
2022-11-27T19:11:30.270Z,68.68
2022-11-27T19:16:31.384Z,75.30
2022-11-27T19:21:31.862Z,82.90
2022-11-27T19:26:31.810Z,66.80
2022-11-27T19:31:33.711Z,68.97
2022-11-27T19:36:42.994Z,62.42
2022-11-27T19:41:42.113Z,56.50
2022-11-27T19:46:39.646Z,57.13
2022-11-27T19:51:38.503Z,59.35
2022-11-27T19:56:37.903Z,58.63
2022-11-27T20:01:38.677Z,56.70
2022-11-27T20:06:46.232Z,59.35
2022-11-27T20:11:43.564Z,60.53
2022-11-27T20:16:46.255Z,55.60
2022-11-27T20:21:43.365Z,55.88
2022-11-27T20:26:44.510Z,49.55
2022-11-27T20:31:46.336Z,56.38
2022-11-27T20:36:46.269Z,60.80
2022-11-27T20:41:54.291Z,49.53
2022-11-27T20:46:54.787Z,54.95
2022-11-27T20:51:54.755Z,49.00
2022-11-27T20:56:53.734Z,47.70
2022-11-27T21:11:55.833Z,48.40
2022-11-27T21:16:53.820Z,45.00
2022-11-27T21:21:55.773Z,43.13
2022-11-27T21:26:55.731Z,43.88
2022-11-27T21:31:56.434Z,39.75
2022-11-27T21:36:53.859Z,46.95
2022-11-27T21:41:52.993Z,42.42
2022-11-27T21:46:50.672Z,40.78
2022-11-27T21:51:52.086Z,43.65
2022-11-27T21:56:52.074Z,48.83
2022-11-27T22:01:49.065Z,48.40
2022-11-27T22:06:46.549Z,51.13
2022-11-27T22:11:45.000Z,53.50
2022-11-27T22:16:45.664Z,46.40
2022-11-27T22:21:44.392Z,52.60
2022-11-27T22:26:41.481Z,53.50
2022-11-27T22:31:39.029Z,53.85
2022-11-27T22:36:36.293Z,52.63
2022-11-27T22:41:36.924Z,47.25
2022-11-27T22:46:35.519Z,49.70
2022-11-27T22:51:35.166Z,46.17
2022-11-27T22:56:33.265Z,46.03
2022-11-27T23:01:30.591Z,44.25
2022-11-27T23:06:27.631Z,50.25
2022-11-27T23:11:29.474Z,49.88
2022-11-27T23:16:29.406Z,47.55
2022-11-27T23:21:26.624Z,40.40
2022-11-27T23:26:24.675Z,43.05
2022-11-27T23:31:31.675Z,43.83
2022-11-27T23:36:30.558Z,45.88
2022-11-27T23:41:28.705Z,46.47
2022-11-27T23:46:28.405Z,44.55
2022-11-27T23:51:27.234Z,45.50
2022-11-27T23:56:25.991Z,44.55
